Time;durP1;ratioP1;P1;durP2;ratioP2;P2;SDS_P1;SDS_P2;PMS_P1;PMS_P2;Temp;Humidity;BMP_temperature;BMP_pressure;BME280_temperature;BME280_humidity;BME280_pressure;Samples;Min_cycle;Max_cycle;Signal;HPM_P1;HPM_P2
2023/09/19 00:02:21;;;;;;;;;;;25.10;59.20;;;;;;5055777;28;19925;-61
2023/09/19 00:04:49;;;;;;;;;;;25.10;59.20;;;;;;5055344;28;19940;-61
2023/09/19 00:07:17;;;;;;;;;;;25.10;59.10;;;;;;5056278;28;19925;-61
2023/09/19 00:09:44;;;;;;;;;;;25.10;59.10;;;;;;5056366;28;19978;-61
2023/09/19 00:12:13;;;;;;;;;;;25.10;59.00;;;;;;5055893;28;20011;-61
2023/09/19 00:14:40;;;;;;;;;;;25.10;59.00;;;;;;5055991;28;19925;-61
2023/09/19 00:17:08;;;;;;;;;;;25.10;59.00;;;;;;5056283;28;19929;-61
2023/09/19 00:19:37;;;;;;;;;;;25.10;59.00;;;;;;5056062;28;19924;-61
2023/09/19 00:22:04;;;;;;;;;;;25.10;59.00;;;;;;5055793;28;19931;-61
2023/09/19 00:24:31;;;;;;;;;;;25.10;58.90;;;;;;5056126;28;20012;-61
2023/09/19 00:26:59;;;;;;;;;;;25.10;58.90;;;;;;5055953;28;19980;-62
2023/09/19 00:29:29;;;;;;;;;;;25.10;58.90;;;;;;5055439;28;20383;-61
2023/09/19 00:31:57;;;;;;;;;;;25.10;58.90;;;;;;5055616;28;20015;-61
2023/09/19 00:34:24;;;;;;;;;;;25.10;58.90;;;;;;5055379;28;20030;-61
2023/09/19 00:36:53;;;;;;;;;;;25.10;58.90;;;;;;5055324;28;19925;-61
2023/09/19 00:39:20;;;;;;;;;;;25.10;58.90;;;;;;5055738;28;19937;-61
2023/09/19 00:41:47;;;;;;;;;;;25.10;59.00;;;;;;5055627;28;20359;-61
2023/09/19 00:44:15;;;;;;;;;;;25.10;58.90;;;;;;5055770;28;20365;-61
2023/09/19 00:46:43;;;;;;;;;;;25.10;58.90;;;;;;5055225;28;20353;-61
2023/09/19 00:49:11;;;;;;;;;;;25.10;58.90;;;;;;5055197;28;19925;-61
2023/09/19 00:51:41;;;;;;;;;;;25.10;58.90;;;;;;5055306;28;19974;-61
2023/09/19 00:54:08;;;;;;;;;;;25.10;58.90;;;;;;5055353;28;19925;-61
2023/09/19 00:56:37;;;;;;;;;;;25.10;58.90;;;;;;5055402;28;19925;-61
2023/09/19 00:59:04;;;;;;;;;;;25.10;58.90;;;;;;5055330;28;19925;-62
2023/09/19 01:01:32;;;;;;;;;;;25.10;58.90;;;;;;5055430;28;19975;-61
2023/09/19 01:03:59;;;;;;;;;;;25.10;58.90;;;;;;5054896;28;19935;-61
2023/09/19 01:06:27;;;;;;;;;;;25.10;58.90;;;;;;5055154;28;19925;-61
2023/09/19 01:08:55;;;;;;;;;;;25.10;58.90;;;;;;5054767;28;20393;-61
2023/09/19 01:11:34;;;;;;;;;;;25.10;58.90;;;;;;5055185;28;19925;-61
2023/09/19 01:14:21;;;;;;;;;;;25.10;58.90;;;;;;5054271;28;20403;-61
2023/09/19 01:16:53;;;;;;;;;;;25.10;58.80;;;;;;5054647;28;20477;-61
2023/09/19 01:19:28;;;;;;;;;;;25.10;58.80;;;;;;5054953;28;19994;-61
2023/09/19 01:22:06;;;;;;;;;;;25.10;58.80;;;;;;5054901;28;19928;-61
2023/09/19 01:24:52;;;;;;;;;;;25.10;58.80;;;;;;5054658;28;19925;-61
2023/09/19 01:27:32;;;;;;;;;;;25.10;58.80;;;;;;5054009;28;19976;-61
2023/09/19 01:30:11;;;;;;;;;;;25.10;58.70;;;;;;5054679;28;19925;-61
2023/09/19 01:32:38;;;;;;;;;;;25.10;58.70;;;;;;5054698;28;19925;-61
2023/09/19 01:35:06;;;;;;;;;;;25.10;58.70;;;;;;5054537;28;19987;-61
2023/09/19 01:37:33;;;;;;;;;;;25.10;58.70;;;;;;5054258;28;19925;-61
2023/09/19 01:40:14;;;;;;;;;;;25.10;58.60;;;;;;5054532;28;19960;-61
2023/09/19 01:42:56;;;;;;;;;;;25.10;58.60;;;;;;5054315;28;20423;-61
2023/09/19 01:45:43;;;;;;;;;;;25.10;58.60;;;;;;5053056;28;19924;-61
2023/09/19 01:48:31;;;;;;;;;;;25.10;58.70;;;;;;5054461;28;20305;-61
2023/09/19 01:51:02;;;;;;;;;;;25.10;58.70;;;;;;5053612;28;20127;-61
2023/09/19 01:53:44;;;;;;;;;;;25.10;58.70;;;;;;5054146;28;19978;-61
2023/09/19 01:56:16;;;;;;;;;;;25.10;58.70;;;;;;5052656;28;20369;-63
2023/09/19 01:58:46;;;;;;;;;;;25.10;58.70;;;;;;5053767;28;20423;-61
2023/09/19 02:01:17;;;;;;;;;;;25.10;58.60;;;;;;5054304;28;19925;-61
2023/09/19 02:03:46;;;;;;;;;;;25.10;58.60;;;;;;5054236;28;19924;-61
2023/09/19 02:06:15;;;;;;;;;;;25.10;58.60;;;;;;5053025;28;19951;-61
2023/09/19 02:08:42;;;;;;;;;;;25.10;58.60;;;;;;5053244;28;19928;-61
2023/09/19 02:11:09;;;;;;;;;;;25.10;58.60;;;;;;5053800;28;19960;-61
2023/09/19 02:13:37;;;;;;;;;;;25.10;58.70;;;;;;5053786;28;20265;-61
2023/09/19 02:16:06;;;;;;;;;;;25.10;58.70;;;;;;5053642;28;20425;-61
2023/09/19 02:18:34;;;;;;;;;;;25.10;58.70;;;;;;5053824;28;20277;-61
2023/09/19 02:21:03;;;;;;;;;;;25.10;58.60;;;;;;5053742;28;20376;-61
2023/09/19 02:23:30;;;;;;;;;;;25.10;58.70;;;;;;5053826;28;19987;-61
2023/09/19 02:25:58;;;;;;;;;;;25.10;58.90;;;;;;5052291;28;19957;-61
2023/09/19 02:28:29;;;;;;;;;;;25.10;58.70;;;;;;5053661;28;20025;-61
2023/09/19 02:30:56;;;;;;;;;;;25.00;58.60;;;;;;5053386;28;19932;-61
2023/09/19 02:33:23;;;;;;;;;;;25.10;58.60;;;;;;5052141;28;19924;-61
2023/09/19 02:35:54;;;;;;;;;;;25.10;58.60;;;;;;5053188;28;19951;-61
2023/09/19 02:38:24;;;;;;;;;;;25.10;58.80;;;;;;5053620;28;19925;-61
2023/09/19 02:40:52;;;;;;;;;;;25.10;58.60;;;;;;5053426;28;19925;-61
2023/09/19 02:43:19;;;;;;;;;;;25.10;58.60;;;;;;5053646;28;20040;-62
2023/09/19 02:45:47;;;;;;;;;;;25.10;58.60;;;;;;5053055;28;19976;-61
2023/09/19 02:48:15;;;;;;;;;;;25.10;58.50;;;;;;5053294;28;19931;-61
2023/09/19 02:50:43;;;;;;;;;;;25.10;58.50;;;;;;5051970;28;20327;-61
2023/09/19 02:53:12;;;;;;;;;;;25.10;58.50;;;;;;5053559;28;19970;-61
2023/09/19 02:55:40;;;;;;;;;;;25.10;58.50;;;;;;5053049;28;19971;-61
2023/09/19 02:58:14;;;;;;;;;;;25.10;58.50;;;;;;5053403;28;19951;-61
2023/09/19 03:00:47;;;;;;;;;;;25.10;58.50;;;;;;5053541;28;19925;-61
2023/09/19 03:03:16;;;;;;;;;;;25.10;58.50;;;;;;5052610;28;20369;-61
2023/09/19 03:05:47;;;;;;;;;;;25.10;58.50;;;;;;5053186;28;19971;-61
2023/09/19 03:08:16;;;;;;;;;;;25.10;58.50;;;;;;5053189;28;20023;-61
2023/09/19 03:10:46;;;;;;;;;;;25.10;58.50;;;;;;5053322;28;19924;-61
2023/09/19 03:13:14;;;;;;;;;;;25.10;58.50;;;;;;5051946;28;19947;-61
2023/09/19 03:15:46;;;;;;;;;;;25.10;58.50;;;;;;5051956;28;19932;-61
2023/09/19 03:18:13;;;;;;;;;;;25.00;58.50;;;;;;5053264;28;19980;-61
2023/09/19 03:20:40;;;;;;;;;;;25.10;58.50;;;;;;5052898;28;19925;-61
2023/09/19 03:23:08;;;;;;;;;;;25.10;58.50;;;;;;5053198;28;19979;-61
2023/09/19 03:25:35;;;;;;;;;;;25.00;58.50;;;;;;5052818;28;19932;-61
2023/09/19 03:28:05;;;;;;;;;;;25.00;58.50;;;;;;5052781;28;19931;-62
2023/09/19 03:30:33;;;;;;;;;;;25.00;58.50;;;;;;5051597;28;19925;-62
2023/09/19 03:33:00;;;;;;;;;;;25.00;58.50;;;;;;5053136;28;20292;-61
2023/09/19 03:35:27;;;;;;;;;;;25.00;58.50;;;;;;5052356;28;20324;-62
2023/09/19 03:37:54;;;;;;;;;;;25.00;58.50;;;;;;5054042;28;19925;-61
2023/09/19 03:40:23;;;;;;;;;;;25.00;58.50;;;;;;5051252;28;20445;-61
2023/09/19 03:42:50;;;;;;;;;;;25.00;58.50;;;;;;5044831;28;20369;-61
2023/09/19 03:45:18;;;;;;;;;;;25.00;58.50;;;;;;5046294;28;20305;-61
2023/09/19 03:47:48;;;;;;;;;;;25.00;58.50;;;;;;5045388;28;19932;-61
2023/09/19 03:50:17;;;;;;;;;;;25.00;58.50;;;;;;5046264;28;19925;-61
2023/09/19 03:52:44;;;;;;;;;;;25.00;58.50;;;;;;5045960;28;19948;-61
2023/09/19 03:55:12;;;;;;;;;;;25.00;58.50;;;;;;5046211;28;19929;-61
2023/09/19 03:57:39;;;;;;;;;;;25.00;58.50;;;;;;5044766;28;19961;-61
2023/09/19 04:00:11;;;;;;;;;;;25.00;58.40;;;;;;5047316;28;20338;-61
2023/09/19 04:02:39;;;;;;;;;;;25.00;58.40;;;;;;5046071;28;20012;-61
2023/09/19 04:05:07;;;;;;;;;;;25.00;58.40;;;;;;5050106;28;19929;-61
2023/09/19 04:07:34;;;;;;;;;;;25.00;58.40;;;;;;5052340;28;19932;-62
2023/09/19 04:10:03;;;;;;;;;;;25.00;58.40;;;;;;5044429;28;19932;-61
2023/09/19 04:12:30;;;;;;;;;;;25.00;58.40;;;;;;5076689;28;19925;-61
2023/09/19 04:14:57;;;;;;;;;;;25.00;58.30;;;;;;5052284;28;19940;-61
2023/09/19 04:17:24;;;;;;;;;;;25.00;58.30;;;;;;5055963;28;19979;-61
2023/09/19 04:19:51;;;;;;;;;;;25.00;58.30;;;;;;5055593;28;19925;-61
2023/09/19 04:22:19;;;;;;;;;;;25.00;58.30;;;;;;5056201;28;19925;-61
2023/09/19 04:24:46;;;;;;;;;;;25.00;58.30;;;;;;5055560;28;19990;-61
2023/09/19 04:27:14;;;;;;;;;;;25.00;58.30;;;;;;5055753;28;19925;-61
2023/09/19 04:29:42;;;;;;;;;;;25.00;58.30;;;;;;5055749;28;19925;-61
2023/09/19 04:32:09;;;;;;;;;;;25.00;58.40;;;;;;5055652;28;20431;-61
2023/09/19 04:34:40;;;;;;;;;;;25.00;58.40;;;;;;5055396;28;19932;-61
2023/09/19 04:37:07;;;;;;;;;;;25.00;58.40;;;;;;5055312;28;19932;-61
2023/09/19 04:39:34;;;;;;;;;;;24.90;58.50;;;;;;5082951;28;20288;-61
2023/09/19 04:42:01;;;;;;;;;;;24.80;58.40;;;;;;5075486;28;19924;-61
2023/09/19 04:44:28;;;;;;;;;;;24.70;58.60;;;;;;5090739;28;20055;-61
2023/09/19 04:46:55;;;;;;;;;;;24.60;58.10;;;;;;5075667;28;20266;-61
2023/09/19 04:49:23;;;;;;;;;;;24.30;56.70;;;;;;5074536;28;20015;-61
2023/09/19 04:51:50;;;;;;;;;;;24.00;55.00;;;;;;5075672;28;19964;-61
2023/09/19 04:54:18;;;;;;;;;;;23.70;54.20;;;;;;5075178;28;19935;-61
2023/09/19 04:56:45;;;;;;;;;;;23.40;53.30;;;;;;5090368;28;19976;-61
2023/09/19 04:59:14;;;;;;;;;;;23.10;53.10;;;;;;5075213;28;19924;-61
2023/09/19 05:01:41;;;;;;;;;;;22.80;52.90;;;;;;5074941;28;19924;-62
2023/09/19 05:04:09;;;;;;;;;;;22.50;53.40;;;;;;5074983;28;19928;-62
2023/09/19 05:06:36;;;;;;;;;;;22.30;53.00;;;;;;5052070;28;19925;-62
2023/09/19 05:09:05;;;;;;;;;;;21.90;54.30;;;;;;5054489;28;19925;-62
2023/09/19 05:11:33;;;;;;;;;;;21.70;53.30;;;;;;5054644;28;19925;-62
2023/09/19 05:14:03;;;;;;;;;;;21.40;53.90;;;;;;5054949;28;20357;-62
2023/09/19 05:16:34;;;;;;;;;;;21.20;53.50;;;;;;5053621;28;19931;-62
2023/09/19 05:19:01;;;;;;;;;;;20.90;55.10;;;;;;5052103;28;19924;-60
2023/09/19 05:21:30;;;;;;;;;;;20.70;51.80;;;;;;5048603;28;19945;-67
2023/09/19 05:23:56;;;;;;;;;;;20.50;53.10;;;;;;5041995;28;20462;-64
2023/09/19 05:26:23;;;;;;;;;;;20.40;55.30;;;;;;5049433;28;19971;-62
2023/09/19 05:28:50;;;;;;;;;;;20.20;55.80;;;;;;5052137;28;19954;-62
2023/09/19 05:31:17;;;;;;;;;;;20.20;55.40;;;;;;5043729;28;19924;-63
2023/09/19 05:33:45;;;;;;;;;;;20.00;55.80;;;;;;5042452;28;19929;-62
2023/09/19 05:36:12;;;;;;;;;;;20.00;55.20;;;;;;5045973;28;19924;-62
2023/09/19 05:38:41;;;;;;;;;;;19.90;55.20;;;;;;5048820;28;19971;-63
2023/09/19 05:41:09;;;;;;;;;;;19.90;54.90;;;;;;5043898;28;20039;-60
2023/09/19 05:43:37;;;;;;;;;;;19.80;55.10;;;;;;5043204;28;19937;-61
2023/09/19 05:46:05;;;;;;;;;;;19.80;54.70;;;;;;5044309;28;19968;-61
2023/09/19 05:48:32;;;;;;;;;;;19.80;56.40;;;;;;5043315;28;19933;-62
2023/09/19 05:51:01;;;;;;;;;;;19.80;54.70;;;;;;5045940;28;20375;-61
2023/09/19 05:53:28;;;;;;;;;;;19.80;57.00;;;;;;5042051;28;19982;-61
2023/09/19 05:55:55;;;;;;;;;;;19.70;55.10;;;;;;5039419;28;20437;-61
2023/09/19 05:58:23;;;;;;;;;;;19.70;57.90;;;;;;5038619;28;19933;-62
2023/09/19 06:00:50;;;;;;;;;;;19.70;56.90;;;;;;5041140;28;20695;-63
2023/09/19 06:03:18;;;;;;;;;;;19.60;58.20;;;;;;5041860;28;19933;-62
2023/09/19 06:05:49;;;;;;;;;;;19.60;55.40;;;;;;5038926;28;19936;-64
2023/09/19 06:08:16;;;;;;;;;;;19.50;55.50;;;;;;5045026;28;19924;-62
2023/09/19 06:10:43;;;;;;;;;;;19.50;56.80;;;;;;5039402;28;19932;-62
2023/09/19 06:13:11;;;;;;;;;;;19.40;54.80;;;;;;5043164;28;19939;-64
2023/09/19 06:15:38;;;;;;;;;;;19.30;54.30;;;;;;5040166;28;19933;-67
2023/09/19 06:18:13;;;;;;;;;;;19.20;54.50;;;;;;5036892;28;19933;-67
2023/09/19 06:20:44;;;;;;;;;;;19.20;55.20;;;;;;5040404;28;19936;-70
2023/09/19 06:23:12;;;;;;;;;;;19.20;54.60;;;;;;5043937;28;19964;-69
2023/09/19 06:25:39;;;;;;;;;;;19.10;54.30;;;;;;5043146;28;19971;-67
2023/09/19 06:28:08;;;;;;;;;;;19.00;54.00;;;;;;5042102;28;20290;-68
2023/09/19 06:30:35;;;;;;;;;;;19.10;54.50;;;;;;5040433;28;19933;-69
2023/09/19 06:33:03;;;;;;;;;;;19.10;55.00;;;;;;5041727;28;19932;-67
2023/09/19 06:35:32;;;;;;;;;;;19.00;54.00;;;;;;5048341;28;19970;-67
2023/09/19 06:38:03;;;;;;;;;;;19.00;54.30;;;;;;5041189;28;19933;-68
2023/09/19 06:40:31;;;;;;;;;;;19.00;54.50;;;;;;5041819;28;20019;-68
2023/09/19 06:43:02;;;;;;;;;;;18.90;54.30;;;;;;5045045;28;19929;-67
2023/09/19 06:45:29;;;;;;;;;;;18.90;54.70;;;;;;5040095;28;20019;-67
2023/09/19 06:47:57;;;;;;;;;;;18.90;54.90;;;;;;5058316;28;19931;-66
2023/09/19 06:50:26;;;;;;;;;;;18.90;54.30;;;;;;5044474;28;19932;-66
2023/09/19 06:52:56;;;;;;;;;;;18.90;54.10;;;;;;5042176;28;19947;-65
2023/09/19 06:55:27;;;;;;;;;;;18.80;55.00;;;;;;5045060;28;20431;-66
2023/09/19 06:57:55;;;;;;;;;;;18.80;55.10;;;;;;5042342;28;19940;-65
2023/09/19 07:00:23;;;;;;;;;;;18.80;54.70;;;;;;5046868;28;19925;-66
2023/09/19 07:03:03;;;;;;;;;;;18.80;54.80;;;;;;5043912;28;19935;-65
2023/09/19 07:05:31;;;;;;;;;;;18.80;55.00;;;;;;5045714;28;19936;-66
2023/09/19 07:07:59;;;;;;;;;;;18.80;54.80;;;;;;5039742;28;20019;-65
2023/09/19 07:10:27;;;;;;;;;;;18.80;54.30;;;;;;5041892;28;19933;-65
2023/09/19 07:12:57;;;;;;;;;;;18.80;54.90;;;;;;5047184;28;19933;-64
2023/09/19 07:15:25;;;;;;;;;;;18.80;56.60;;;;;;5043775;28;19929;-65
2023/09/19 07:17:56;;;;;;;;;;;18.80;55.30;;;;;;5047418;28;19947;-65
2023/09/19 07:20:29;;;;;;;;;;;18.80;56.40;;;;;;5045306;28;20369;-66
2023/09/19 07:22:59;;;;;;;;;;;18.70;56.00;;;;;;5044905;28;19933;-66
2023/09/19 07:25:30;;;;;;;;;;;18.80;54.50;;;;;;5044022;28;20440;-65
2023/09/19 07:28:01;;;;;;;;;;;18.80;56.20;;;;;;5049674;28;19933;-66
2023/09/19 07:30:28;;;;;;;;;;;18.80;57.30;;;;;;5045589;28;19940;-67
2023/09/19 07:32:56;;;;;;;;;;;18.80;55.20;;;;;;5044426;28;19929;-67
2023/09/19 07:35:23;;;;;;;;;;;18.80;58.00;;;;;;5043127;28;19980;-66
2023/09/19 07:37:51;;;;;;;;;;;18.80;56.10;;;;;;5045931;28;19943;-66
2023/09/19 07:40:20;;;;;;;;;;;18.80;55.50;;;;;;5043443;28;19980;-67
2023/09/19 07:42:48;;;;;;;;;;;18.80;54.10;;;;;;5045214;28;19928;-66
2023/09/19 07:45:17;;;;;;;;;;;18.80;55.20;;;;;;5045429;28;19935;-67
2023/09/19 07:47:48;;;;;;;;;;;18.80;57.60;;;;;;5047584;28;19933;-68
2023/09/19 07:50:18;;;;;;;;;;;18.70;54.60;;;;;;5045356;28;20439;-66
2023/09/19 07:52:48;;;;;;;;;;;18.70;57.20;;;;;;5050001;28;19928;-64
2023/09/19 07:55:19;;;;;;;;;;;18.70;55.50;;;;;;5048562;28;20004;-66
2023/09/19 07:57:47;;;;;;;;;;;18.70;55.30;;;;;;5045816;28;19928;-65
2023/09/19 08:00:14;;;;;;;;;;;18.70;54.20;;;;;;5048686;28;19929;-66
2023/09/19 08:02:41;;;;;;;;;;;18.70;55.90;;;;;;5045807;28;19944;-64
2023/09/19 08:05:10;;;;;;;;;;;18.70;57.50;;;;;;5046379;28;19951;-64
2023/09/19 08:07:38;;;;;;;;;;;18.70;53.80;;;;;;5045525;28;20393;-64
2023/09/19 08:10:07;;;;;;;;;;;18.70;53.90;;;;;;5047970;28;19987;-63
2023/09/19 08:12:35;;;;;;;;;;;18.80;56.00;;;;;;5045798;28;19929;-66
2023/09/19 08:15:03;;;;;;;;;;;18.80;56.30;;;;;;5046643;28;20008;-66
2023/09/19 08:17:34;;;;;;;;;;;18.80;54.90;;;;;;5041197;28;19933;-66
2023/09/19 08:20:03;;;;;;;;;;;18.80;55.10;;;;;;5041572;28;19933;-67
2023/09/19 08:22:31;;;;;;;;;;;18.80;56.00;;;;;;5048576;28;19933;-66
2023/09/19 08:24:58;;;;;;;;;;;18.80;53.80;;;;;;5043812;28;19939;-66
2023/09/19 08:27:26;;;;;;;;;;;18.80;55.40;;;;;;5044601;28;20331;-66
2023/09/19 08:29:53;;;;;;;;;;;18.80;54.70;;;;;;5041213;28;19983;-66
2023/09/19 08:32:24;;;;;;;;;;;18.80;54.40;;;;;;5046597;28;19933;-70
2023/09/19 08:34:51;;;;;;;;;;;18.80;56.10;;;;;;5048008;28;20284;-65
2023/09/19 08:37:18;;;;;;;;;;;18.80;55.20;;;;;;5039062;28;20091;-65
2023/09/19 08:39:47;;;;;;;;;;;18.80;55.50;;;;;;5042412;28;19936;-67
2023/09/19 08:42:16;;;;;;;;;;;18.80;56.10;;;;;;5046265;28;19924;-66
2023/09/19 08:44:43;;;;;;;;;;;18.80;54.90;;;;;;5048402;28;19935;-66
2023/09/19 08:47:14;;;;;;;;;;;18.80;54.80;;;;;;5044664;28;19939;-66
2023/09/19 08:50:03;;;;;;;;;;;18.80;55.00;;;;;;5048303;28;19935;-66
2023/09/19 08:52:35;;;;;;;;;;;18.80;55.70;;;;;;5045548;28;19928;-68
2023/09/19 08:55:09;;;;;;;;;;;18.80;56.20;;;;;;5045574;28;19939;-67
2023/09/19 08:57:41;;;;;;;;;;;18.80;53.90;;;;;;5044356;28;20293;-65
2023/09/19 09:00:14;;;;;;;;;;;18.80;55.70;;;;;;5045788;28;20197;-65
2023/09/19 09:02:43;;;;;;;;;;;18.90;56.30;;;;;;5045751;28;19932;-65
2023/09/19 09:05:10;;;;;;;;;;;18.90;57.00;;;;;;5041858;28;19986;-67
2023/09/19 09:07:38;;;;;;;;;;;18.90;56.50;;;;;;5041538;28;19936;-65
2023/09/19 09:10:06;;;;;;;;;;;18.90;56.90;;;;;;5045577;28;20011;-65
2023/09/19 09:12:36;;;;;;;;;;;18.90;56.00;;;;;;5042167;28;19942;-64
2023/09/19 09:15:03;;;;;;;;;;;18.90;58.10;;;;;;5047630;28;19932;-64
2023/09/19 09:17:30;;;;;;;;;;;18.90;57.00;;;;;;5044812;28;19974;-65
2023/09/19 09:19:58;;;;;;;;;;;18.90;55.30;;;;;;5044142;28;19929;-65
2023/09/19 09:22:26;;;;;;;;;;;18.90;56.10;;;;;;5044393;28;20304;-64
2023/09/19 09:24:54;;;;;;;;;;;18.90;57.00;;;;;;5044948;28;19939;-65
2023/09/19 09:27:23;;;;;;;;;;;18.90;55.80;;;;;;5043827;28;19924;-65
2023/09/19 09:29:54;;;;;;;;;;;18.90;57.00;;;;;;5043003;28;20334;-68
2023/09/19 09:32:26;;;;;;;;;;;18.90;57.40;;;;;;5043185;28;19978;-64
2023/09/19 09:34:54;;;;;;;;;;;19.00;57.20;;;;;;5046016;28;19925;-66
2023/09/19 09:37:28;;;;;;;;;;;19.00;57.30;;;;;;5049682;28;20349;-67
2023/09/19 09:40:17;;;;;;;;;;;19.00;54.60;;;;;;5043722;28;20012;-64
2023/09/19 09:42:52;;;;;;;;;;;19.00;57.40;;;;;;5040211;28;19944;-64
2023/09/19 09:45:37;;;;;;;;;;;19.00;55.00;;;;;;5040811;28;19929;-66
2023/09/19 09:48:14;;;;;;;;;;;19.10;55.60;;;;;;5044267;28;19932;-64
2023/09/19 09:51:03;;;;;;;;;;;19.10;58.30;;;;;;5049045;28;19955;-67
2023/09/19 09:53:34;;;;;;;;;;;19.10;56.90;;;;;;5040568;28;19975;-66
2023/09/19 09:56:09;;;;;;;;;;;19.20;54.90;;;;;;5049540;28;19929;-64
2023/09/19 09:58:40;;;;;;;;;;;19.20;55.90;;;;;;5042135;28;19943;-64
2023/09/19 10:01:14;;;;;;;;;;;19.20;58.40;;;;;;5039854;28;19925;-64
2023/09/19 10:03:49;;;;;;;;;;;19.20;54.60;;;;;;5060576;28;19929;-64
2023/09/19 10:06:25;;;;;;;;;;;19.30;56.20;;;;;;5046705;28;19932;-63
2023/09/19 10:09:11;;;;;;;;;;;19.30;56.00;;;;;;5047154;28;20436;-63
2023/09/19 10:11:43;;;;;;;;;;;19.30;57.20;;;;;;5060837;28;19979;-63
2023/09/19 10:14:12;;;;;;;;;;;19.30;55.40;;;;;;5046666;28;20002;-63
2023/09/19 10:16:40;;;;;;;;;;;19.30;55.70;;;;;;5049444;28;19935;-63
2023/09/19 10:19:08;;;;;;;;;;;19.30;56.80;;;;;;5047160;28;19929;-65
2023/09/19 10:21:36;;;;;;;;;;;19.30;54.40;;;;;;5044370;28;20023;-65
2023/09/19 10:24:07;;;;;;;;;;;19.30;58.00;;;;;;5048125;28;20333;-66
2023/09/19 10:26:36;;;;;;;;;;;19.30;57.60;;;;;;5044005;28;19958;-63
2023/09/19 10:29:07;;;;;;;;;;;19.30;57.50;;;;;;5041098;28;20023;-65
2023/09/19 10:31:36;;;;;;;;;;;19.30;56.90;;;;;;5041893;28;20021;-67
2023/09/19 10:34:04;;;;;;;;;;;19.40;57.20;;;;;;5048372;28;20262;-65
2023/09/19 10:36:34;;;;;;;;;;;19.30;56.20;;;;;;5041112;28;20673;-63
2023/09/19 10:39:04;;;;;;;;;;;19.30;55.60;;;;;;5039925;28;19929;-65
2023/09/19 10:41:34;;;;;;;;;;;19.30;56.60;;;;;;5040434;28;19928;-66
2023/09/19 10:44:03;;;;;;;;;;;19.30;57.90;;;;;;5043661;28;19928;-66
2023/09/19 10:46:31;;;;;;;;;;;19.30;57.00;;;;;;5044478;28;19937;-65
2023/09/19 10:49:00;;;;;;;;;;;19.30;59.30;;;;;;5056382;28;19929;-64
2023/09/19 10:51:31;;;;;;;;;;;19.30;57.80;;;;;;5043075;28;19979;-64
2023/09/19 10:54:11;;;;;;;;;;;19.30;56.30;;;;;;5040976;28;19933;-63
2023/09/19 10:56:42;;;;;;;;;;;19.30;59.00;;;;;;5044893;28;20539;-65
2023/09/19 10:59:10;;;;;;;;;;;19.30;57.90;;;;;;5047165;28;19936;-64
2023/09/19 11:01:58;;;;;;;;;;;19.20;59.50;;;;;;5044199;28;20042;-64
2023/09/19 11:04:36;;;;;;;;;;;19.20;59.60;;;;;;5044549;28;20010;-64
2023/09/19 11:07:10;;;;;;;;;;;19.20;59.00;;;;;;5043973;28;19970;-64
2023/09/19 11:09:48;;;;;;;;;;;19.20;59.10;;;;;;5045125;28;19932;-63
2023/09/19 11:12:43;;;;;;;;;;;19.20;58.50;;;;;;5043794;28;20012;-64
2023/09/19 11:15:12;;;;;;;;;;;19.20;57.90;;;;;;5054012;28;19929;-64
2023/09/19 11:17:46;;;;;;;;;;;19.20;58.60;;;;;;5044760;28;19936;-64
2023/09/19 11:20:24;;;;;;;;;;;19.20;57.10;;;;;;5043726;28;20357;-63
2023/09/19 11:23:03;;;;;;;;;;;19.20;57.70;;;;;;5046565;28;20312;-63
2023/09/19 11:25:47;;;;;;;;;;;19.20;58.00;;;;;;5041981;28;19932;-63
2023/09/19 11:28:28;;;;;;;;;;;19.20;56.00;;;;;;5037337;28;20029;-63
2023/09/19 11:30:56;;;;;;;;;;;19.20;58.60;;;;;;5041346;28;19959;-63
2023/09/19 11:33:33;;;;;;;;;;;19.20;57.30;;;;;;5045559;28;20034;-64
2023/09/19 11:36:02;;;;;;;;;;;19.20;57.60;;;;;;5043967;28;20015;-65
2023/09/19 11:38:50;;;;;;;;;;;19.20;57.80;;;;;;5043811;28;19929;-64
2023/09/19 11:41:33;;;;;;;;;;;19.20;58.30;;;;;;5044097;28;19944;-65
2023/09/19 11:44:19;;;;;;;;;;;19.20;57.90;;;;;;5047413;28;19932;-67
2023/09/19 11:46:55;;;;;;;;;;;19.20;59.80;;;;;;5028726;28;19925;-64
2023/09/19 11:49:29;;;;;;;;;;;19.20;58.10;;;;;;5045729;28;19939;-64
2023/09/19 11:51:57;;;;;;;;;;;19.20;59.20;;;;;;5042611;28;19931;-63
2023/09/19 11:54:28;;;;;;;;;;;19.20;59.30;;;;;;5042315;28;19933;-64
2023/09/19 11:56:55;;;;;;;;;;;19.20;59.10;;;;;;5046758;28;19948;-64
2023/09/19 11:59:24;;;;;;;;;;;19.20;59.30;;;;;;5026321;28;20010;-64
2023/09/19 12:01:57;;;;;;;;;;;19.20;60.20;;;;;;5045109;28;20292;-63
2023/09/19 12:04:37;;;;;;;;;;;19.20;59.50;;;;;;5048467;28;20423;-63
2023/09/19 12:07:12;;;;;;;;;;;19.20;58.60;;;;;;5049297;28;19964;-64
2023/09/19 12:09:42;;;;;;;;;;;19.20;59.50;;;;;;5049930;28;20024;-65
2023/09/19 12:12:12;;;;;;;;;;;19.20;59.10;;;;;;5045747;28;19940;-64
2023/09/19 12:14:41;;;;;;;;;;;19.20;59.30;;;;;;5044981;28;19925;-63
2023/09/19 12:17:09;;;;;;;;;;;19.20;59.00;;;;;;5044023;28;19964;-63
2023/09/19 12:19:36;;;;;;;;;;;19.20;58.80;;;;;;5050937;28;20078;-63
2023/09/19 12:22:09;;;;;;;;;;;19.20;59.70;;;;;;5054674;28;19984;-63
2023/09/19 12:24:40;;;;;;;;;;;19.30;60.50;;;;;;5046832;28;20598;-58
2023/09/19 12:27:07;;;;;;;;;;;19.30;60.60;;;;;;5051762;28;19933;-59
2023/09/19 12:29:45;;;;;;;;;;;19.30;60.80;;;;;;5051245;28;19933;-58
2023/09/19 12:32:12;;;;;;;;;;;19.30;60.00;;;;;;5047652;28;19932;-60
2023/09/19 12:34:42;;;;;;;;;;;19.40;60.10;;;;;;5048560;28;19925;-59
2023/09/19 12:37:12;;;;;;;;;;;19.40;60.00;;;;;;5043994;28;20470;-60
2023/09/19 12:39:41;;;;;;;;;;;19.40;61.10;;;;;;5043108;28;19983;-60
2023/09/19 12:42:13;;;;;;;;;;;19.40;59.70;;;;;;5040912;28;20385;-60
2023/09/19 12:44:48;;;;;;;;;;;19.40;60.80;;;;;;5044077;28;19936;-59
2023/09/19 12:47:18;;;;;;;;;;;19.40;61.10;;;;;;5044617;28;19978;-59
2023/09/19 12:50:06;;;;;;;;;;;19.40;61.70;;;;;;5045851;28;19933;-60
2023/09/19 12:52:37;;;;;;;;;;;19.40;60.90;;;;;;5048514;28;19935;-60
2023/09/19 12:55:05;;;;;;;;;;;19.40;61.70;;;;;;5042017;28;19965;-60
2023/09/19 12:57:34;;;;;;;;;;;19.40;61.30;;;;;;5047233;28;20561;-60
2023/09/19 13:00:02;;;;;;;;;;;19.50;61.60;;;;;;5044199;28;19963;-60
2023/09/19 13:02:30;;;;;;;;;;;19.50;61.10;;;;;;5041891;28;19925;-60
2023/09/19 13:04:59;;;;;;;;;;;19.50;60.50;;;;;;5042348;28;19946;-59
2023/09/19 13:07:43;;;;;;;;;;;19.50;60.50;;;;;;5042991;28;19936;-59
2023/09/19 13:10:11;;;;;;;;;;;19.50;61.10;;;;;;5041225;28;20362;-60
2023/09/19 13:12:38;;;;;;;;;;;19.50;60.30;;;;;;5049926;28;19983;-60
2023/09/19 13:15:24;;;;;;;;;;;19.50;60.60;;;;;;5048812;28;19925;-60
2023/09/19 13:17:53;;;;;;;;;;;19.50;61.10;;;;;;5042051;28;19925;-58
2023/09/19 13:20:27;;;;;;;;;;;19.50;60.70;;;;;;5045492;28;20010;-59
2023/09/19 13:22:58;;;;;;;;;;;19.50;61.20;;;;;;5045740;28;19937;-61
2023/09/19 13:25:28;;;;;;;;;;;19.50;61.40;;;;;;5046596;28;19932;-61
2023/09/19 13:27:56;;;;;;;;;;;19.50;60.70;;;;;;5043806;28;19982;-60
2023/09/19 13:30:29;;;;;;;;;;;19.50;60.90;;;;;;5043950;28;19961;-59
2023/09/19 13:33:07;;;;;;;;;;;19.50;61.30;;;;;;5045560;28;19925;-59
2023/09/19 13:35:34;;;;;;;;;;;19.50;61.20;;;;;;5043936;28;20450;-60
2023/09/19 13:38:01;;;;;;;;;;;19.50;61.10;;;;;;5043605;28;20663;-60
2023/09/19 13:40:31;;;;;;;;;;;19.60;60.50;;;;;;5042244;28;20481;-60
2023/09/19 13:42:58;;;;;;;;;;;19.60;60.70;;;;;;5045138;28;20285;-60
2023/09/19 13:45:30;;;;;;;;;;;19.50;60.10;;;;;;5046193;28;20162;-59
2023/09/19 13:47:58;;;;;;;;;;;19.60;60.90;;;;;;5050885;28;20445;-60
2023/09/19 13:50:28;;;;;;;;;;;19.50;60.50;;;;;;5044914;28;20016;-60
2023/09/19 13:52:57;;;;;;;;;;;19.50;59.80;;;;;;5041045;28;19939;-60
2023/09/19 13:55:25;;;;;;;;;;;19.50;60.50;;;;;;5048269;28;20022;-61
2023/09/19 13:57:55;;;;;;;;;;;19.60;59.10;;;;;;5043963;28;19935;-61
2023/09/19 14:00:23;;;;;;;;;;;19.50;60.50;;;;;;5043137;28;19925;-59
2023/09/19 14:02:50;;;;;;;;;;;19.60;60.10;;;;;;5044400;28;19986;-58
2023/09/19 14:05:20;;;;;;;;;;;19.60;61.30;;;;;;5039531;28;20341;-59
2023/09/19 14:07:48;;;;;;;;;;;19.80;70.30;;;;;;5044101;28;19924;-60
2023/09/19 14:10:16;;;;;;;;;;;20.20;76.80;;;;;;5044164;28;19925;-61
2023/09/19 14:12:45;;;;;;;;;;;20.50;79.40;;;;;;5048145;28;20369;-60
2023/09/19 14:15:12;;;;;;;;;;;20.90;80.00;;;;;;5045242;28;19978;-60
2023/09/19 14:17:42;;;;;;;;;;;21.30;79.80;;;;;;5038224;28;19937;-59
2023/09/19 14:20:10;;;;;;;;;;;21.60;79.50;;;;;;5040573;28;19925;-60
2023/09/19 14:22:37;;;;;;;;;;;21.90;79.00;;;;;;5041786;28;19925;-59
2023/09/19 14:25:05;;;;;;;;;;;22.20;78.80;;;;;;5043701;28;19933;-59
2023/09/19 14:27:32;;;;;;;;;;;22.50;78.30;;;;;;5041337;28;20288;-59
2023/09/19 14:29:59;;;;;;;;;;;22.60;77.90;;;;;;5046722;28;19978;-59
2023/09/19 14:32:26;;;;;;;;;;;22.90;78.00;;;;;;5040860;28;20317;-57
2023/09/19 14:34:53;;;;;;;;;;;23.00;77.80;;;;;;5038402;28;19929;-57